CheckWX is a tool to help pilots better visualize weather data.  It is not intended as a substitute for an official pre-flight weather briefing.

02:48:49 UTC

KOFF TAF
Offutt AFB Airport
Omaha, Nebraska, USA
TAF KOFF 230200Z 2302/2408 11006KT 9999 SCT100 BKN150 QNH3009INS BECMG 2311/2312 12012KT 9999 SCT030 QNH3010INS BECMG 2313/2314 VRB06KT 8000 -RA BKN020 OVC035 QNH3005INS BECMG 2318/2319 10012KT 6000 -RA OVC007 620706 QNH2990INS TX11/2302Z TN05/2309Z

Mar-23@
02:00 UTC

Mar-23 @ 02:00 UTC

Mar-23@
11:00 UTC

Mar-23 @ 11:00 UTC

TAF KOFF 230200Z 2302/2408 11006KT 9999 SCT100 BKN150 QNH3009INS
Wind
  • 110° at 6 KTS
Cloud Levels
  • Scattered at 10,000' AGL
  • Broken at 15,000' AGL

Mar-23@
11:00 UTC

Mar-23 @ 11:00 UTC

Mar-23@
13:00 UTC

Mar-23 @ 13:00 UTC

BECMG 2311/2312 12012KT 9999 SCT030 QNH3010INS

Becoming

Becoming Conditions expected by Sat, Mar 23, 2019 @ 12:00 UTC

Wind
  • 120° at 12 KTS
Cloud Levels
  • Scattered at 3,000' AGL

Mar-23@
13:00 UTC

Mar-23 @ 13:00 UTC

Mar-23@
18:00 UTC

Mar-23 @ 18:00 UTC

BECMG 2313/2314 VRB06KT 8000 -RA BKN020 OVC035 QNH3005INS

Becoming

Becoming Conditions expected by Sat, Mar 23, 2019 @ 14:00 UTC

Wind
  • Variable at 6 KTS
Conditions
Light Rain
Cloud Levels
  • Broken at 2,000' AGL
  • Overcast at 3,500' AGL

Mar-23@
18:00 UTC

Mar-23 @ 18:00 UTC

Mar-24@
08:00 UTC

Mar-24 @ 08:00 UTC

BECMG 2318/2319 10012KT 6000 -RA OVC007 620706 QNH2990INS TX11/2302Z TN05/2309Z

Becoming

Becoming Conditions expected by Sat, Mar 23, 2019 @ 19:00 UTC

Wind
  • 100° at 12 KTS
Conditions
Light Rain
Cloud Levels
  • Overcast at 700' AGL
Icing
Light icing in cloud expected at 7,000' AGL extending to 13,000' AGL